sensor_id;sensor_type;location;lat;lon;timestamp;pressure;altitude;pressure_sealevel;temperature;humidity
61345;BME280;47216;42.656;23.232;2022-08-19T00:01:50;93705.97;;;21.02;59.30
61345;BME280;47216;42.656;23.232;2022-08-19T00:04:18;93710.03;;;20.99;59.28
61345;BME280;47216;42.656;23.232;2022-08-19T00:06:46;93708.44;;;21.07;59.01
61345;BME280;47216;42.656;23.232;2022-08-19T00:09:17;93714.03;;;21.14;58.87
61345;BME280;47216;42.656;23.232;2022-08-19T00:11:45;93711.09;;;21.07;59.18
61345;BME280;47216;42.656;23.232;2022-08-19T00:14:14;93713.78;;;20.98;59.47
61345;BME280;47216;42.656;23.232;2022-08-19T00:16:44;93709.88;;;20.95;59.66
61345;BME280;47216;42.656;23.232;2022-08-19T00:19:11;93721.13;;;20.92;59.38
61345;BME280;47216;42.656;23.232;2022-08-19T00:21:38;93723.31;;;20.90;59.76
61345;BME280;47216;42.656;23.232;2022-08-19T00:24:06;93730.78;;;20.88;59.88
61345;BME280;47216;42.656;23.232;2022-08-19T00:26:35;93728.31;;;20.83;60.28
61345;BME280;47216;42.656;23.232;2022-08-19T00:29:04;93729.06;;;20.92;59.54
61345;BME280;47216;42.656;23.232;2022-08-19T00:31:32;93728.47;;;20.87;59.47
61345;BME280;47216;42.656;23.232;2022-08-19T00:33:58;93725.66;;;20.92;59.63
61345;BME280;47216;42.656;23.232;2022-08-19T00:36:25;93717.41;;;20.76;60.08
61345;BME280;47216;42.656;23.232;2022-08-19T00:38:54;93718.03;;;20.73;60.39
61345;BME280;47216;42.656;23.232;2022-08-19T00:41:23;93715.69;;;20.71;60.43
61345;BME280;47216;42.656;23.232;2022-08-19T00:44:00;93711.50;;;20.62;60.73
61345;BME280;47216;42.656;23.232;2022-08-19T00:46:29;93709.16;;;20.60;61.10
61345;BME280;47216;42.656;23.232;2022-08-19T00:48:56;93711.47;;;20.53;60.91
61345;BME280;47216;42.656;23.232;2022-08-19T00:51:24;93711.00;;;20.51;60.90
61345;BME280;47216;42.656;23.232;2022-08-19T00:53:52;93708.81;;;20.44;61.04
61345;BME280;47216;42.656;23.232;2022-08-19T00:56:20;93704.63;;;20.61;60.52
61345;BME280;47216;42.656;23.232;2022-08-19T00:58:47;93707.16;;;20.66;60.19
61345;BME280;47216;42.656;23.232;2022-08-19T01:01:16;93708.69;;;20.67;60.39
61345;BME280;47216;42.656;23.232;2022-08-19T01:03:42;93702.44;;;20.63;60.05
61345;BME280;47216;42.656;23.232;2022-08-19T01:06:09;93717.25;;;20.72;59.66
61345;BME280;47216;42.656;23.232;2022-08-19T01:08:36;93711.81;;;20.69;60.17
61345;BME280;47216;42.656;23.232;2022-08-19T01:11:03;93706.47;;;20.51;60.52
61345;BME280;47216;42.656;23.232;2022-08-19T01:13:33;93708.66;;;20.49;60.58
61345;BME280;47216;42.656;23.232;2022-08-19T01:16:02;93709.94;;;20.61;60.33
61345;BME280;47216;42.656;23.232;2022-08-19T01:18:32;93707.16;;;20.66;60.01
61345;BME280;47216;42.656;23.232;2022-08-19T01:21:05;93704.94;;;20.68;59.78
61345;BME280;47216;42.656;23.232;2022-08-19T01:23:35;93703.09;;;20.60;59.95
61345;BME280;47216;42.656;23.232;2022-08-19T01:26:16;93694.50;;;20.45;60.53
61345;BME280;47216;42.656;23.232;2022-08-19T01:28:44;93696.69;;;20.43;60.80
61345;BME280;47216;42.656;23.232;2022-08-19T01:31:15;93695.91;;;20.34;61.20
61345;BME280;47216;42.656;23.232;2022-08-19T01:33:42;93699.94;;;20.23;61.41
61345;BME280;47216;42.656;23.232;2022-08-19T01:36:11;93699.19;;;20.22;61.18
61345;BME280;47216;42.656;23.232;2022-08-19T01:38:42;93697.16;;;20.10;61.98
61345;BME280;47216;42.656;23.232;2022-08-19T01:41:11;93699.94;;;20.14;61.26
61345;BME280;47216;42.656;23.232;2022-08-19T01:43:38;93702.44;;;20.28;61.25
61345;BME280;47216;42.656;23.232;2022-08-19T01:46:05;93700.41;;;20.25;61.55
61345;BME280;47216;42.656;23.232;2022-08-19T01:48:35;93703.22;;;20.28;61.11
61345;BME280;47216;42.656;23.232;2022-08-19T01:51:03;93706.03;;;20.32;61.20
61345;BME280;47216;42.656;23.232;2022-08-19T01:53:30;93709.78;;;20.22;61.35
61345;BME280;47216;42.656;23.232;2022-08-19T01:56:01;93704.78;;;20.21;61.54
61345;BME280;47216;42.656;23.232;2022-08-19T01:58:32;93703.66;;;20.22;61.51
61345;BME280;47216;42.656;23.232;2022-08-19T02:01:02;93708.03;;;20.35;61.12
61345;BME280;47216;42.656;23.232;2022-08-19T02:03:29;93700.56;;;20.37;61.20
61345;BME280;47216;42.656;23.232;2022-08-19T02:05:58;93702.75;;;20.35;61.54
61345;BME280;47216;42.656;23.232;2022-08-19T02:08:28;93706.66;;;20.20;61.43
61345;BME280;47216;42.656;23.232;2022-08-19T02:10:55;93700.25;;;20.30;61.45
61345;BME280;47216;42.656;23.232;2022-08-19T02:13:25;93697.59;;;20.21;61.52
61345;BME280;47216;42.656;23.232;2022-08-19T02:15:52;93704.00;;;20.11;61.33
61345;BME280;47216;42.656;23.232;2022-08-19T02:18:19;93704.75;;;20.12;61.83
61345;BME280;47216;42.656;23.232;2022-08-19T02:20:46;93703.19;;;20.02;61.82
61345;BME280;47216;42.656;23.232;2022-08-19T02:23:14;93699.31;;;20.08;61.81
61345;BME280;47216;42.656;23.232;2022-08-19T02:25:43;93703.19;;;20.02;62.16
61345;BME280;47216;42.656;23.232;2022-08-19T02:28:10;93700.41;;;20.07;62.19
61345;BME280;47216;42.656;23.232;2022-08-19T02:30:41;93706.31;;;20.04;62.17
61345;BME280;47216;42.656;23.232;2022-08-19T02:33:08;93699.94;;;19.97;62.39
61345;BME280;47216;42.656;23.232;2022-08-19T02:35:35;93700.66;;;19.80;62.66
61345;BME280;47216;42.656;23.232;2022-08-19T02:38:02;93702.22;;;19.72;62.94
61345;BME280;47216;42.656;23.232;2022-08-19T02:40:49;93700.03;;;19.74;62.93
61345;BME280;47216;42.656;23.232;2022-08-19T02:43:17;93693.97;;;19.73;62.42
61345;BME280;47216;42.656;23.232;2022-08-19T02:45:47;93700.47;;;19.67;62.83
61345;BME280;47216;42.656;23.232;2022-08-19T02:48:15;93701.00;;;19.87;62.40
61345;BME280;47216;42.656;23.232;2022-08-19T02:50:44;93696.81;;;19.86;62.45
61345;BME280;47216;42.656;23.232;2022-08-19T02:53:11;93695.72;;;19.78;62.75
61345;BME280;47216;42.656;23.232;2022-08-19T02:55:43;93705.97;;;19.71;62.80
61345;BME280;47216;42.656;23.232;2022-08-19T02:58:11;93707.06;;;19.79;62.46
61345;BME280;47216;42.656;23.232;2022-08-19T03:00:42;93703.03;;;19.90;62.07
61345;BME280;47216;42.656;23.232;2022-08-19T03:03:11;93711.31;;;19.97;61.87
61345;BME280;47216;42.656;23.232;2022-08-19T03:05:38;93700.25;;;20.12;61.67
61345;BME280;47216;42.656;23.232;2022-08-19T03:08:05;93700.09;;;20.26;62.17
61345;BME280;47216;42.656;23.232;2022-08-19T03:10:33;93700.56;;;20.37;61.83
61345;BME280;47216;42.656;23.232;2022-08-19T03:13:00;93703.69;;;20.39;61.82
61345;BME280;47216;42.656;23.232;2022-08-19T03:15:26;93699.81;;;20.10;62.50
61345;BME280;47216;42.656;23.232;2022-08-19T03:17:53;93702.56;;;20.05;62.40
61345;BME280;47216;42.656;23.232;2022-08-19T03:20:21;93702.91;;;20.04;62.36
61345;BME280;47216;42.656;23.232;2022-08-19T03:22:48;93705.50;;;19.86;62.19
61345;BME280;47216;42.656;23.232;2022-08-19T03:25:15;93705.28;;;19.65;63.15
61345;BME280;47216;42.656;23.232;2022-08-19T03:27:42;93713.06;;;19.62;63.51
61345;BME280;47216;42.656;23.232;2022-08-19T03:30:10;93710.72;;;19.60;63.26
61345;BME280;47216;42.656;23.232;2022-08-19T03:32:37;93714.25;;;19.47;63.75
61345;BME280;47216;42.656;23.232;2022-08-19T03:35:05;93704.59;;;19.42;64.27
61345;BME280;47216;42.656;23.232;2022-08-19T03:37:33;93710.97;;;19.41;64.23
61345;BME280;47216;42.656;23.232;2022-08-19T03:40:00;93710.94;;;19.33;64.56
61345;BME280;47216;42.656;23.232;2022-08-19T03:42:29;93710.75;;;19.29;64.46
61345;BME280;47216;42.656;23.232;2022-08-19T03:44:56;93713.19;;;19.17;64.99
61345;BME280;47216;42.656;23.232;2022-08-19T03:47:23;93719.09;;;19.14;64.67
61345;BME280;47216;42.656;23.232;2022-08-19T03:49:50;93721.06;;;19.08;65.30
61345;BME280;47216;42.656;23.232;2022-08-19T03:52:17;93720.91;;;19.04;65.43
61345;BME280;47216;42.656;23.232;2022-08-19T03:54:46;93726.78;;;19.01;65.48
61345;BME280;47216;42.656;23.232;2022-08-19T03:57:12;93721.06;;;19.08;65.02
61345;BME280;47216;42.656;23.232;2022-08-19T03:59:39;93722.81;;;19.13;64.87
61345;BME280;47216;42.656;23.232;2022-08-19T04:02:09;93735.31;;;19.21;65.10
61345;BME280;47216;42.656;23.232;2022-08-19T04:04:37;93728.63;;;19.23;64.81
61345;BME280;47216;42.656;23.232;2022-08-19T04:07:04;93738.91;;;19.34;64.31
61345;BME280;47216;42.656;23.232;2022-08-19T04:09:33;93731.19;;;19.37;64.37
61345;BME280;47216;42.656;23.232;2022-08-19T04:12:04;93734.59;;;19.38;64.04
61345;BME280;47216;42.656;23.232;2022-08-19T04:14:32;93731.81;;;19.43;63.92
61345;BME280;47216;42.656;23.232;2022-08-19T04:17:00;93731.38;;;19.49;63.25
61345;BME280;47216;42.656;23.232;2022-08-19T04:19:30;93735.59;;;19.59;63.73
61345;BME280;47216;42.656;23.232;2022-08-19T04:21:57;93732.84;;;19.64;63.16
61345;BME280;47216;42.656;23.232;2022-08-19T04:24:24;93737.38;;;19.72;63.08
61345;BME280;47216;42.656;23.232;2022-08-19T04:26:51;93735.25;;;19.83;62.90
61345;BME280;47216;42.656;23.232;2022-08-19T04:29:22;93744.44;;;19.86;62.71
61345;BME280;47216;42.656;23.232;2022-08-19T04:31:50;93738.84;;;19.96;62.46
61345;BME280;47216;42.656;23.232;2022-08-19T04:34:20;93742.13;;;20.02;62.69
61345;BME280;47216;42.656;23.232;2022-08-19T04:36:49;93739.63;;;19.97;62.45
61345;BME280;47216;42.656;23.232;2022-08-19T04:39:19;93737.00;;;20.05;62.47
61345;BME280;47216;42.656;23.232;2022-08-19T04:41:47;93732.47;;;20.14;62.47
61345;BME280;47216;42.656;23.232;2022-08-19T04:44:34;93731.72;;;20.23;62.03
61345;BME280;47216;42.656;23.232;2022-08-19T04:47:03;93733.94;;;20.38;61.81
61345;BME280;47216;42.656;23.232;2022-08-19T04:49:31;93738.59;;;20.59;61.63
61345;BME280;47216;42.656;23.232;2022-08-19T04:51:58;93730.19;;;20.74;61.66
61345;BME280;47216;42.656;23.232;2022-08-19T04:54:25;93744.50;;;20.90;61.41
61345;BME280;47216;42.656;23.232;2022-08-19T04:56:53;93741.38;;;21.06;61.25
61345;BME280;47216;42.656;23.232;2022-08-19T04:59:20;93746.19;;;21.12;62.06
61345;BME280;47216;42.656;23.232;2022-08-19T05:01:49;93736.94;;;21.18;62.40
61345;BME280;47216;42.656;23.232;2022-08-19T05:04:18;93746.31;;;21.16;59.59
61345;BME280;47216;42.656;23.232;2022-08-19T05:06:49;93746.31;;;21.25;59.06
61345;BME280;47216;42.656;23.232;2022-08-19T05:09:17;93748.59;;;21.35;59.74
61345;BME280;47216;42.656;23.232;2022-08-19T05:11:46;93747.06;;;21.43;59.90
61345;BME280;47216;42.656;23.232;2022-08-19T05:14:16;93753.91;;;21.52;59.79
61345;BME280;47216;42.656;23.232;2022-08-19T05:16:43;93754.81;;;21.56;60.63
61345;BME280;47216;42.656;23.232;2022-08-19T05:19:11;93749.91;;;21.67;60.91
61345;BME280;47216;42.656;23.232;2022-08-19T05:21:55;93747.88;;;21.73;61.96
61345;BME280;47216;42.656;23.232;2022-08-19T05:24:40;93751.84;;;21.88;61.59
61345;BME280;47216;42.656;23.232;2022-08-19T05:27:07;93753.22;;;21.94;61.53
61345;BME280;47216;42.656;23.232;2022-08-19T05:29:34;93751.31;;;22.03;61.17
61345;BME280;47216;42.656;23.232;2022-08-19T05:32:03;93757.16;;;22.17;60.28
61345;BME280;47216;42.656;23.232;2022-08-19T05:34:35;93749.03;;;22.22;58.47
61345;BME280;47216;42.656;23.232;2022-08-19T05:37:05;93744.25;;;22.37;58.54
61345;BME280;47216;42.656;23.232;2022-08-19T05:39:35;93747.44;;;22.51;58.71
61345;BME280;47216;42.656;23.232;2022-08-19T05:42:05;93739.97;;;22.65;58.72
61345;BME280;47216;42.656;23.232;2022-08-19T05:44:34;93750.63;;;22.78;57.85
61345;BME280;47216;42.656;23.232;2022-08-19T05:47:03;93745.03;;;22.92;57.77
61345;BME280;47216;42.656;23.232;2022-08-19T05:49:32;93741.47;;;23.09;58.35
61345;BME280;47216;42.656;23.232;2022-08-19T05:52:03;93746.91;;;23.12;58.99
61345;BME280;47216;42.656;23.232;2022-08-19T05:54:31;93745.69;;;23.22;58.49
61345;BME280;47216;42.656;23.232;2022-08-19T05:56:58;93748.28;;;23.31;58.79
61345;BME280;47216;42.656;23.232;2022-08-19T05:59:24;93741.97;;;23.47;57.74
61345;BME280;47216;42.656;23.232;2022-08-19T06:01:53;93743.09;;;23.59;57.08
61345;BME280;47216;42.656;23.232;2022-08-19T06:04:23;93751.75;;;23.68;56.41
61345;BME280;47216;42.656;23.232;2022-08-19T06:06:52;93749.53;;;23.70;56.29
61345;BME280;47216;42.656;23.232;2022-08-19T06:09:21;93759.22;;;23.75;56.35
61345;BME280;47216;42.656;23.232;2022-08-19T06:11:50;93750.03;;;23.84;55.90
61345;BME280;47216;42.656;23.232;2022-08-19T06:14:20;93752.69;;;23.97;56.55
61345;BME280;47216;42.656;23.232;2022-08-19T06:16:48;93751.56;;;23.98;56.31
61345;BME280;47216;42.656;23.232;2022-08-19T06:19:18;93759.34;;;24.03;56.23
61345;BME280;47216;42.656;23.232;2022-08-19T06:21:47;93757.56;;;24.07;55.70
61345;BME280;47216;42.656;23.232;2022-08-19T06:24:16;93756.44;;;24.20;55.46
61345;BME280;47216;42.656;23.232;2022-08-19T06:26:46;93750.19;;;24.28;55.29
61345;BME280;47216;42.656;23.232;2022-08-19T06:29:15;93750.44;;;24.36;55.19
61345;BME280;47216;42.656;23.232;2022-08-19T06:31:43;93756.63;;;24.40;55.40
61345;BME280;47216;42.656;23.232;2022-08-19T06:34:11;93752.75;;;24.49;55.84
61345;BME280;47216;42.656;23.232;2022-08-19T06:36:41;93749.63;;;24.60;55.44
61345;BME280;47216;42.656;23.232;2022-08-19T06:39:10;93757.56;;;24.72;56.03
61345;BME280;47216;42.656;23.232;2022-08-19T06:41:41;93756.41;;;24.85;55.39
61345;BME280;47216;42.656;23.232;2022-08-19T06:44:09;93751.38;;;24.96;54.62
61345;BME280;47216;42.656;23.232;2022-08-19T06:46:37;93751.81;;;24.98;53.90
61345;BME280;47216;42.656;23.232;2022-08-19T06:49:04;93748.03;;;24.99;54.05
61345;BME280;47216;42.656;23.232;2022-08-19T06:51:31;93753.97;;;25.08;53.88
61345;BME280;47216;42.656;23.232;2022-08-19T06:53:59;93759.28;;;25.21;54.20
61345;BME280;47216;42.656;23.232;2022-08-19T06:56:29;93757.91;;;25.27;53.80
61345;BME280;47216;42.656;23.232;2022-08-19T06:58:59;93761.03;;;25.29;53.70
61345;BME280;47216;42.656;23.232;2022-08-19T07:01:27;93765.00;;;25.35;53.88
61345;BME280;47216;42.656;23.232;2022-08-19T07:03:54;93765.19;;;25.42;53.17
61345;BME280;47216;42.656;23.232;2022-08-19T07:06:21;93766.22;;;25.53;53.08
61345;BME280;47216;42.656;23.232;2022-08-19T07:08:48;93771.81;;;25.64;53.20
61345;BME280;47216;42.656;23.232;2022-08-19T07:11:17;93761.84;;;25.77;53.30
61345;BME280;47216;42.656;23.232;2022-08-19T07:13:46;93764.00;;;25.87;52.55
61345;BME280;47216;42.656;23.232;2022-08-19T07:16:16;93765.03;;;25.98;52.47
61345;BME280;47216;42.656;23.232;2022-08-19T07:18:46;93770.63;;;26.09;52.46
61345;BME280;47216;42.656;23.232;2022-08-19T07:21:15;93762.69;;;26.13;51.89
61345;BME280;47216;42.656;23.232;2022-08-19T07:23:43;93768.19;;;26.20;51.42
61345;BME280;47216;42.656;23.232;2022-08-19T07:26:12;93773.00;;;26.30;51.66
61345;BME280;47216;42.656;23.232;2022-08-19T07:28:40;93773.59;;;26.39;50.93
61345;BME280;47216;42.656;23.232;2022-08-19T07:31:10;93775.44;;;26.55;50.93
61345;BME280;47216;42.656;23.232;2022-08-19T07:33:38;93764.31;;;26.53;51.19
61345;BME280;47216;42.656;23.232;2022-08-19T07:36:10;93767.59;;;26.62;50.84
61345;BME280;47216;42.656;23.232;2022-08-19T07:38:39;93771.25;;;26.73;50.21
61345;BME280;47216;42.656;23.232;2022-08-19T07:41:07;93770.56;;;26.76;50.67
61345;BME280;47216;42.656;23.232;2022-08-19T07:43:35;93769.56;;;26.85;50.04
61345;BME280;47216;42.656;23.232;2022-08-19T07:46:02;93771.28;;;26.93;49.89
61345;BME280;47216;42.656;23.232;2022-08-19T07:48:29;93769.22;;;27.06;49.36
61345;BME280;47216;42.656;23.232;2022-08-19T07:51:00;93769.00;;;27.14;49.70
61345;BME280;47216;42.656;23.232;2022-08-19T07:53:30;93784.44;;;27.21;49.04
61345;BME280;47216;42.656;23.232;2022-08-19T07:55:58;93770.84;;;27.30;49.06
61345;BME280;47216;42.656;23.232;2022-08-19T07:58:31;93762.50;;;27.35;50.27
61345;BME280;47216;42.656;23.232;2022-08-19T08:00:59;93779.59;;;27.50;49.75
61345;BME280;47216;42.656;23.232;2022-08-19T08:03:27;93771.03;;;27.63;48.51
61345;BME280;47216;42.656;23.232;2022-08-19T08:06:08;93769.19;;;27.67;48.80
61345;BME280;47216;42.656;23.232;2022-08-19T08:08:54;93765.41;;;27.69;47.39
61345;BME280;47216;42.656;23.232;2022-08-19T08:11:49;93766.94;;;27.70;46.99
61345;BME280;47216;42.656;23.232;2022-08-19T08:14:18;93761.91;;;27.88;46.30
61345;BME280;47216;42.656;23.232;2022-08-19T08:16:45;93749.75;;;27.94;45.61
61345;BME280;47216;42.656;23.232;2022-08-19T08:19:13;93754.16;;;28.09;45.51
61345;BME280;47216;42.656;23.232;2022-08-19T08:21:41;93750.88;;;28.19;45.91
61345;BME280;47216;42.656;23.232;2022-08-19T08:24:11;93744.84;;;28.26;45.54
61345;BME280;47216;42.656;23.232;2022-08-19T08:26:38;93750.75;;;28.39;44.52
61345;BME280;47216;42.656;23.232;2022-08-19T08:29:06;93750.53;;;28.47;43.58
61345;BME280;47216;42.656;23.232;2022-08-19T08:31:38;93746.00;;;28.52;43.52
61345;BME280;47216;42.656;23.232;2022-08-19T08:34:06;93745.75;;;28.64;43.21
61345;BME280;47216;42.656;23.232;2022-08-19T08:36:36;93750.13;;;28.76;43.92
61345;BME280;47216;42.656;23.232;2022-08-19T08:39:07;93747.06;;;28.77;42.13
61345;BME280;47216;42.656;23.232;2022-08-19T08:41:42;93744.47;;;28.84;42.07
61345;BME280;47216;42.656;23.232;2022-08-19T08:44:17;93749.94;;;28.91;41.43
61345;BME280;47216;42.656;23.232;2022-08-19T08:46:47;93746.69;;;29.09;40.61
61345;BME280;47216;42.656;23.232;2022-08-19T08:49:26;93746.41;;;29.18;41.56
61345;BME280;47216;42.656;23.232;2022-08-19T08:52:03;93740.69;;;29.23;40.01
61345;BME280;47216;42.656;23.232;2022-08-19T08:54:34;93740.00;;;29.29;40.06
61345;BME280;47216;42.656;23.232;2022-08-19T08:57:09;93729.69;;;29.35;40.36
61345;BME280;47216;42.656;23.232;2022-08-19T08:59:40;93724.75;;;29.41;40.38
61345;BME280;47216;42.656;23.232;2022-08-19T09:02:08;93729.84;;;29.53;38.99
61345;BME280;47216;42.656;23.232;2022-08-19T09:04:36;93724.66;;;29.71;39.43
61345;BME280;47216;42.656;23.232;2022-08-19T09:07:18;93728.50;;;29.73;40.09
61345;BME280;47216;42.656;23.232;2022-08-19T09:09:50;93726.25;;;29.79;38.99
61345;BME280;47216;42.656;23.232;2022-08-19T09:12:23;93732.06;;;29.85;38.76
61345;BME280;47216;42.656;23.232;2022-08-19T09:14:56;93724.44;;;29.90;36.68
61345;BME280;47216;42.656;23.232;2022-08-19T09:17:26;93717.28;;;29.64;36.56
61345;BME280;47216;42.656;23.232;2022-08-19T09:20:00;93720.50;;;29.81;37.85
61345;BME280;47216;42.656;23.232;2022-08-19T09:22:30;93719.09;;;30.01;38.64
61345;BME280;47216;42.656;23.232;2022-08-19T09:24:57;93716.03;;;29.99;37.46
61345;BME280;47216;42.656;23.232;2022-08-19T09:27:27;93717.56;;;30.00;36.73
61345;BME280;47216;42.656;23.232;2022-08-19T09:29:54;93716.09;;;30.06;36.17
61345;BME280;47216;42.656;23.232;2022-08-19T09:32:22;93706.91;;;30.14;37.29
61345;BME280;47216;42.656;23.232;2022-08-19T09:34:49;93709.31;;;30.27;37.88
61345;BME280;47216;42.656;23.232;2022-08-19T09:37:19;93708.59;;;30.37;36.77
61345;BME280;47216;42.656;23.232;2022-08-19T09:39:46;93707.09;;;30.47;37.28
61345;BME280;47216;42.656;23.232;2022-08-19T09:42:13;93708.31;;;30.53;36.46
61345;BME280;47216;42.656;23.232;2022-08-19T09:44:42;93704.50;;;30.65;35.75
61345;BME280;47216;42.656;23.232;2022-08-19T09:47:10;93701.06;;;30.71;36.82
61345;BME280;47216;42.656;23.232;2022-08-19T09:49:38;93707.25;;;30.79;36.40
61345;BME280;47216;42.656;23.232;2022-08-19T09:52:05;93707.25;;;30.79;34.84
61345;BME280;47216;42.656;23.232;2022-08-19T09:54:33;93701.91;;;30.86;34.67
61345;BME280;47216;42.656;23.232;2022-08-19T09:57:00;93703.84;;;30.89;33.58
61345;BME280;47216;42.656;23.232;2022-08-19T09:59:28;93701.94;;;30.97;35.49
61345;BME280;47216;42.656;23.232;2022-08-19T10:01:56;93696.19;;;31.09;34.77
61345;BME280;47216;42.656;23.232;2022-08-19T10:04:24;93694.28;;;31.13;36.22
61345;BME280;47216;42.656;23.232;2022-08-19T10:07:11;93694.69;;;31.23;34.99
61345;BME280;47216;42.656;23.232;2022-08-19T10:09:38;93686.59;;;31.26;34.78
61345;BME280;47216;42.656;23.232;2022-08-19T10:12:07;93689.75;;;31.43;33.45
61345;BME280;47216;42.656;23.232;2022-08-19T10:14:34;93679.69;;;31.25;32.72
61345;BME280;47216;42.656;23.232;2022-08-19T10:17:03;93682.00;;;31.34;33.42
61345;BME280;47216;42.656;23.232;2022-08-19T10:19:30;93683.56;;;31.42;33.66
61345;BME280;47216;42.656;23.232;2022-08-19T10:22:03;93685.09;;;31.54;34.75
61345;BME280;47216;42.656;23.232;2022-08-19T10:24:30;93674.31;;;31.61;33.42
61345;BME280;47216;42.656;23.232;2022-08-19T10:26:57;93680.88;;;31.81;31.96
61345;BME280;47216;42.656;23.232;2022-08-19T10:29:24;93680.91;;;31.64;30.45
61345;BME280;47216;42.656;23.232;2022-08-19T10:31:53;93666.63;;;31.77;31.47
61345;BME280;47216;42.656;23.232;2022-08-19T10:34:22;93672.78;;;31.81;32.19
61345;BME280;47216;42.656;23.232;2022-08-19T10:36:49;93657.38;;;31.96;32.20
61345;BME280;47216;42.656;23.232;2022-08-19T10:39:16;93670.84;;;32.11;32.01
61345;BME280;47216;42.656;23.232;2022-08-19T10:41:46;93665.81;;;32.16;31.12
61345;BME280;47216;42.656;23.232;2022-08-19T10:44:14;93661.59;;;32.19;31.99
61345;BME280;47216;42.656;23.232;2022-08-19T10:46:43;93661.19;;;32.17;30.92
61345;BME280;47216;42.656;23.232;2022-08-19T10:49:12;93663.88;;;32.24;31.73
61345;BME280;47216;42.656;23.232;2022-08-19T10:51:41;93663.47;;;32.29;32.73
61345;BME280;47216;42.656;23.232;2022-08-19T10:54:26;93659.66;;;32.09;29.05
61345;BME280;47216;42.656;23.232;2022-08-19T10:57:14;93660.78;;;32.18;29.89
61345;BME280;47216;42.656;23.232;2022-08-19T10:59:40;93663.47;;;32.33;29.98
61345;BME280;47216;42.656;23.232;2022-08-19T11:02:08;93656.56;;;32.14;28.90
61345;BME280;47216;42.656;23.232;2022-08-19T11:04:36;93653.06;;;32.28;29.82
61345;BME280;47216;42.656;23.232;2022-08-19T11:07:05;93656.16;;;32.22;30.39
61345;BME280;47216;42.656;23.232;2022-08-19T11:09:37;93649.63;;;32.23;30.64
61345;BME280;47216;42.656;23.232;2022-08-19T11:12:05;93650.31;;;32.35;31.24
61345;BME280;47216;42.656;23.232;2022-08-19T11:14:33;93646.03;;;32.48;31.16
61345;BME280;47216;42.656;23.232;2022-08-19T11:17:01;93645.28;;;32.58;30.83
61345;BME280;47216;42.656;23.232;2022-08-19T11:19:28;93644.84;;;32.63;31.92
61345;BME280;47216;42.656;23.232;2022-08-19T11:21:55;93648.75;;;32.55;30.37
61345;BME280;47216;42.656;23.232;2022-08-19T11:24:25;93649.13;;;32.50;29.06
61345;BME280;47216;42.656;23.232;2022-08-19T11:26:54;93640.38;;;32.17;30.26
61345;BME280;47216;42.656;23.232;2022-08-19T11:29:24;93634.91;;;32.39;30.50
61345;BME280;47216;42.656;23.232;2022-08-19T11:31:53;93631.00;;;32.54;31.12
61345;BME280;47216;42.656;23.232;2022-08-19T11:34:24;93639.03;;;32.69;31.61
61345;BME280;47216;42.656;23.232;2022-08-19T11:36:53;93633.19;;;32.81;31.07
61345;BME280;47216;42.656;23.232;2022-08-19T11:39:26;93626.34;;;32.65;29.50
61345;BME280;47216;42.656;23.232;2022-08-19T11:41:53;93623.97;;;32.75;30.99
61345;BME280;47216;42.656;23.232;2022-08-19T11:44:20;93630.09;;;32.86;30.43
61345;BME280;47216;42.656;23.232;2022-08-19T11:46:47;93620.34;;;32.99;30.66
61345;BME280;47216;42.656;23.232;2022-08-19T11:49:15;93626.09;;;33.09;31.23
61345;BME280;47216;42.656;23.232;2022-08-19T11:51:44;93615.28;;;33.12;30.30
61345;BME280;47216;42.656;23.232;2022-08-19T11:54:12;93622.19;;;33.17;29.82
61345;BME280;47216;42.656;23.232;2022-08-19T11:56:41;93624.84;;;33.24;30.50
61345;BME280;47216;42.656;23.232;2022-08-19T11:59:08;93622.75;;;33.46;29.53
61345;BME280;47216;42.656;23.232;2022-08-19T12:01:36;93615.78;;;33.45;29.04
61345;BME280;47216;42.656;23.232;2022-08-19T12:04:03;93610.06;;;33.39;30.94
61345;BME280;47216;42.656;23.232;2022-08-19T12:06:32;93606.91;;;33.44;29.52
61345;BME280;47216;42.656;23.232;2022-08-19T12:09:02;93601.94;;;33.39;28.66
61345;BME280;47216;42.656;23.232;2022-08-19T12:11:29;93599.13;;;33.05;29.13
61345;BME280;47216;42.656;23.232;2022-08-19T12:13:57;93597.66;;;32.86;30.31
61345;BME280;47216;42.656;23.232;2022-08-19T12:16:26;93606.63;;;32.69;29.61
61345;BME280;47216;42.656;23.232;2022-08-19T12:18:54;93591.66;;;32.50;28.89
61345;BME280;47216;42.656;23.232;2022-08-19T12:21:24;93593.09;;;32.76;29.91
61345;BME280;47216;42.656;23.232;2022-08-19T12:23:54;93587.91;;;32.99;30.41
61345;BME280;47216;42.656;23.232;2022-08-19T12:26:21;93578.91;;;33.20;29.84
61345;BME280;47216;42.656;23.232;2022-08-19T12:28:48;93578.81;;;33.31;29.57
61345;BME280;47216;42.656;23.232;2022-08-19T12:31:17;93575.63;;;33.43;29.74
61345;BME280;47216;42.656;23.232;2022-08-19T12:33:45;93578.31;;;33.43;30.33
61345;BME280;47216;42.656;23.232;2022-08-19T12:36:14;93579.41;;;33.53;31.03
61345;BME280;47216;42.656;23.232;2022-08-19T12:38:42;93569.25;;;33.68;31.35
61345;BME280;47216;42.656;23.232;2022-08-19T12:41:12;93572.25;;;33.77;30.06
61345;BME280;47216;42.656;23.232;2022-08-19T12:43:39;93569.75;;;33.94;29.59
61345;BME280;47216;42.656;23.232;2022-08-19T12:46:07;93567.78;;;33.98;29.94
61345;BME280;47216;42.656;23.232;2022-08-19T12:48:36;93566.22;;;33.97;30.46
61345;BME280;47216;42.656;23.232;2022-08-19T12:51:07;93567.69;;;34.05;30.02
61345;BME280;47216;42.656;23.232;2022-08-19T12:53:34;93563.47;;;34.04;29.74
61345;BME280;47216;42.656;23.232;2022-08-19T12:56:02;93566.50;;;34.06;30.36
61345;BME280;47216;42.656;23.232;2022-08-19T12:58:29;93555.75;;;34.02;30.48
61345;BME280;47216;42.656;23.232;2022-08-19T13:00:56;93558.00;;;34.11;30.38